createdAt,value
2018-05-13T00:00:19.598Z,83.70
2018-05-13T00:01:19.612Z,83.70
2018-05-13T00:02:19.629Z,83.89
2018-05-13T00:03:19.642Z,83.70
2018-05-13T00:04:19.657Z,83.89
2018-05-13T00:05:19.749Z,84.08
2018-05-13T00:06:19.689Z,84.36
2018-05-13T00:07:19.701Z,84.27
2018-05-13T00:08:19.711Z,84.08
2018-05-13T00:09:19.727Z,84.56
2018-05-13T00:10:19.741Z,84.36
2018-05-13T00:11:19.754Z,83.70
2018-05-13T00:12:19.770Z,83.61
2018-05-13T00:13:19.783Z,84.27
2018-05-13T00:14:19.799Z,84.56
2018-05-13T00:15:19.813Z,84.27
2018-05-13T00:16:19.829Z,84.36
2018-05-13T00:17:19.840Z,84.36
2018-05-13T00:18:19.854Z,84.56
2018-05-13T00:19:19.871Z,85.03
2018-05-13T00:20:19.885Z,84.84
2018-05-13T00:21:19.897Z,85.13
2018-05-13T00:22:19.912Z,85.60
2018-05-13T00:23:19.927Z,85.22
2018-05-13T00:24:19.941Z,85.41
2018-05-13T00:25:19.956Z,85.32
2018-05-13T00:26:19.975Z,85.37
2018-05-13T00:27:19.982Z,85.66
2018-05-13T00:28:19.997Z,85.56
2018-05-13T00:29:20.022Z,85.47
2018-05-13T00:30:20.026Z,86.13
2018-05-13T00:31:20.041Z,86.04
2018-05-13T00:32:20.054Z,86.04
2018-05-13T00:33:20.068Z,85.85
2018-05-13T00:34:20.091Z,85.85
2018-05-13T00:35:20.100Z,86.22
2018-05-13T00:36:20.111Z,85.75
2018-05-13T00:37:20.125Z,86.13
2018-05-13T00:38:20.136Z,85.85
2018-05-13T00:39:20.152Z,85.75
2018-05-13T00:40:20.168Z,85.94
2018-05-13T00:41:20.179Z,86.22
2018-05-13T00:42:20.198Z,86.04
2018-05-13T00:43:20.209Z,86.13
2018-05-13T00:44:20.223Z,86.32
2018-05-13T00:45:20.236Z,85.75
2018-05-13T00:46:20.249Z,86.04
2018-05-13T00:47:20.263Z,85.85
2018-05-13T00:48:20.277Z,86.04
2018-05-13T00:49:20.295Z,86.32
2018-05-13T00:50:20.305Z,86.42
2018-05-13T00:51:20.319Z,86.51
2018-05-13T00:52:20.334Z,86.32
2018-05-13T00:53:20.347Z,86.42
2018-05-13T00:54:20.360Z,86.42
2018-05-13T00:55:20.379Z,86.22
2018-05-13T00:56:20.391Z,86.70
2018-05-13T00:57:20.407Z,87.37
2018-05-13T00:58:20.416Z,87.27
2018-05-13T00:59:20.428Z,86.90
2018-05-13T01:00:20.445Z,86.70
2018-05-13T01:01:20.458Z,86.61
2018-05-13T01:02:20.472Z,86.80
2018-05-13T01:03:20.486Z,87.08
2018-05-13T01:04:20.503Z,86.94
2018-05-13T01:05:20.512Z,86.51
2018-05-13T01:06:20.526Z,86.47
2018-05-13T01:07:20.540Z,86.47
2018-05-13T01:08:20.557Z,87.23
2018-05-13T01:09:20.568Z,87.04
2018-05-13T01:10:20.586Z,87.13
2018-05-13T01:11:20.597Z,87.04
2018-05-13T01:12:20.608Z,87.42
2018-05-13T01:13:20.621Z,87.32
2018-05-13T01:14:20.639Z,87.23
2018-05-13T01:15:20.651Z,87.23
2018-05-13T01:16:20.663Z,87.42
2018-05-13T01:17:20.678Z,87.42
2018-05-13T01:18:20.690Z,87.13
2018-05-13T01:19:20.704Z,87.13
2018-05-13T01:20:20.718Z,87.42
2018-05-13T01:21:20.731Z,87.61
2018-05-13T01:22:20.746Z,87.71
2018-05-13T01:23:20.762Z,87.90
2018-05-13T01:24:20.772Z,87.71
2018-05-13T01:25:20.786Z,88.09
2018-05-13T01:26:20.798Z,87.42
2018-05-13T01:27:20.815Z,87.42
2018-05-13T01:28:20.827Z,88.18
2018-05-13T01:29:20.838Z,87.99
2018-05-13T01:30:20.852Z,88.66
2018-05-13T01:31:20.865Z,88.46
2018-05-13T01:32:20.884Z,88.18
2018-05-13T01:33:20.892Z,88.66
2018-05-13T01:34:20.907Z,88.18
2018-05-13T01:35:20.919Z,88.18
2018-05-13T01:36:20.933Z,88.28
2018-05-13T01:37:20.949Z,87.90
2018-05-13T01:38:20.962Z,88.09
2018-05-13T01:39:20.974Z,87.99
2018-05-13T01:40:20.987Z,88.09
2018-05-13T01:41:21.005Z,87.90
2018-05-13T01:42:21.014Z,88.28
2018-05-13T01:43:21.028Z,88.18
2018-05-13T01:44:21.042Z,88.09
2018-05-13T01:45:21.053Z,87.99
2018-05-13T01:46:21.067Z,88.09
2018-05-13T01:47:21.081Z,88.18
2018-05-13T01:48:21.094Z,87.99
2018-05-13T01:49:21.114Z,88.66
2018-05-13T01:50:21.121Z,88.37
2018-05-13T01:51:21.134Z,88.42
2018-05-13T01:52:21.149Z,89.09
2018-05-13T01:53:21.159Z,89.09
2018-05-13T01:54:21.174Z,88.75
2018-05-13T01:55:21.188Z,89.00
2018-05-13T01:56:21.200Z,88.42
2018-05-13T01:57:21.216Z,88.52
2018-05-13T01:58:21.226Z,88.52
2018-05-13T01:59:21.238Z,88.04
2018-05-13T02:00:21.253Z,88.52
2018-05-13T02:01:21.263Z,88.80
2018-05-13T02:02:21.277Z,88.33
2018-05-13T02:03:21.291Z,88.80
2018-05-13T02:04:21.304Z,88.56
2018-05-13T02:05:21.317Z,88.80
2018-05-13T02:06:21.330Z,89.00
2018-05-13T02:07:21.345Z,88.37
2018-05-13T02:08:21.357Z,88.80
2018-05-13T02:09:21.368Z,88.33
2018-05-13T02:10:21.380Z,88.42
2018-05-13T02:11:21.398Z,88.42
2018-05-13T02:12:21.474Z,88.56
2018-05-13T02:13:21.423Z,88.85
2018-05-13T02:14:21.434Z,88.37
2018-05-13T02:15:21.448Z,88.37
2018-05-13T02:16:21.461Z,88.75
2018-05-13T02:17:21.472Z,88.56
2018-05-13T02:18:21.486Z,88.56
2018-05-13T02:19:21.499Z,88.66
2018-05-13T02:20:21.512Z,89.00
2018-05-13T02:21:21.525Z,87.95
2018-05-13T02:22:21.539Z,88.71
2018-05-13T02:23:21.549Z,89.09
2018-05-13T02:24:21.564Z,89.00
2018-05-13T02:25:21.579Z,89.18
2018-05-13T02:26:21.591Z,88.61
2018-05-13T02:27:21.605Z,88.61
2018-05-13T02:28:21.618Z,88.61
2018-05-13T02:29:21.628Z,89.00
2018-05-13T02:30:21.644Z,88.23
2018-05-13T02:31:21.659Z,88.42
2018-05-13T02:32:21.668Z,88.52
2018-05-13T02:33:21.681Z,89.09
2018-05-13T02:34:21.697Z,89.00
2018-05-13T02:35:21.707Z,89.09
2018-05-13T02:36:21.721Z,88.80
2018-05-13T02:37:21.731Z,88.04
2018-05-13T02:38:21.746Z,88.42
2018-05-13T02:39:21.760Z,89.32
2018-05-13T02:40:21.773Z,88.42
2018-05-13T02:41:21.784Z,88.33
2018-05-13T02:42:21.797Z,88.42
2018-05-13T02:43:21.811Z,89.04
2018-05-13T02:44:21.830Z,88.33
2018-05-13T02:45:21.836Z,88.80
2018-05-13T02:46:21.850Z,89.00
2018-05-13T02:47:21.862Z,89.00
2018-05-13T02:48:21.875Z,88.94
2018-05-13T02:49:21.887Z,88.46
2018-05-13T02:50:21.900Z,87.95
2018-05-13T02:51:21.913Z,88.46
2018-05-13T02:52:21.928Z,87.95
2018-05-13T02:53:21.939Z,88.71
2018-05-13T02:54:21.953Z,89.00
2018-05-13T02:55:21.965Z,88.52
2018-05-13T02:56:21.978Z,88.23
2018-05-13T02:57:21.995Z,88.52
2018-05-13T02:58:22.003Z,88.42
2018-05-13T02:59:22.016Z,88.33
2018-05-13T03:00:22.033Z,88.71
2018-05-13T03:01:22.042Z,88.33
2018-05-13T03:02:22.056Z,89.00
2018-05-13T03:03:22.069Z,88.42
2018-05-13T03:04:22.082Z,88.13
2018-05-13T03:05:22.095Z,88.13
2018-05-13T03:06:22.106Z,88.13
2018-05-13T03:07:22.130Z,88.90
2018-05-13T03:08:22.133Z,88.94
2018-05-13T03:09:22.145Z,88.52
2018-05-13T03:10:22.157Z,88.28
2018-05-13T03:11:22.172Z,88.52
2018-05-13T03:12:22.185Z,88.33
2018-05-13T03:13:22.208Z,88.33
2018-05-13T03:14:22.210Z,87.38
2018-05-13T03:15:22.223Z,88.61
2018-05-13T03:16:22.237Z,88.33
2018-05-13T03:17:22.249Z,88.42
2018-05-13T03:18:22.260Z,88.33
2018-05-13T03:19:22.274Z,88.13
2018-05-13T03:20:22.287Z,89.09
2018-05-13T03:21:22.300Z,87.28
2018-05-13T03:22:22.311Z,88.23
2018-05-13T03:23:22.333Z,88.13
2018-05-13T03:24:22.339Z,88.52
2018-05-13T03:25:22.354Z,88.61
2018-05-13T03:26:22.363Z,88.13
2018-05-13T03:27:22.377Z,88.52
2018-05-13T03:28:22.389Z,87.95
2018-05-13T03:29:22.401Z,87.76
2018-05-13T03:30:22.417Z,88.52
2018-05-13T03:31:22.435Z,87.95
2018-05-13T03:32:22.441Z,88.04
2018-05-13T03:33:22.455Z,88.13
2018-05-13T03:34:22.471Z,88.52
2018-05-13T03:35:22.478Z,88.52
2018-05-13T03:36:22.491Z,87.43
2018-05-13T03:37:22.504Z,87.90
2018-05-13T03:38:22.517Z,87.43
2018-05-13T03:39:22.532Z,88.00
2018-05-13T03:40:22.541Z,87.90
2018-05-13T03:41:22.554Z,88.47
2018-05-13T03:42:22.568Z,88.47
2018-05-13T03:43:22.579Z,88.23
2018-05-13T03:44:22.594Z,88.71
2018-05-13T03:45:22.606Z,88.71
2018-05-13T03:46:22.619Z,88.04
2018-05-13T03:47:22.631Z,88.23
2018-05-13T03:48:22.643Z,88.52
2018-05-13T03:49:22.656Z,87.95
2018-05-13T03:50:22.668Z,88.13
2018-05-13T03:51:22.681Z,88.42
2018-05-13T03:52:22.695Z,88.71
2018-05-13T03:53:22.705Z,88.52
2018-05-13T03:54:22.719Z,88.42
2018-05-13T03:55:22.739Z,88.33
2018-05-13T03:56:22.744Z,87.95
2018-05-13T03:57:22.757Z,88.80
2018-05-13T03:58:22.775Z,88.04
2018-05-13T03:59:22.781Z,88.80
2018-05-13T04:00:22.796Z,88.42
2018-05-13T04:01:22.808Z,88.61
2018-05-13T04:02:22.821Z,88.13
2018-05-13T04:03:22.835Z,88.33
2018-05-13T04:04:22.847Z,88.09
2018-05-13T04:05:22.861Z,88.09
2018-05-13T04:06:22.878Z,88.09
2018-05-13T04:07:22.891Z,88.57
2018-05-13T04:08:22.895Z,88.19
2018-05-13T04:09:22.908Z,88.47
2018-05-13T04:10:22.921Z,88.47
2018-05-13T04:11:22.935Z,88.57
2018-05-13T04:12:22.948Z,88.57
2018-05-13T04:13:22.959Z,88.76
2018-05-13T04:14:22.973Z,88.85
2018-05-13T04:15:22.984Z,88.61
2018-05-13T04:16:22.998Z,88.42
2018-05-13T04:17:23.011Z,88.23
2018-05-13T04:18:23.021Z,89.09
2018-05-13T04:19:23.036Z,88.71
2018-05-13T04:20:23.047Z,88.52
2018-05-13T04:21:23.058Z,88.52
2018-05-13T04:22:23.072Z,88.33
2018-05-13T04:23:23.085Z,88.33
2018-05-13T04:24:23.099Z,88.33
2018-05-13T04:25:23.110Z,88.33
2018-05-13T04:26:23.121Z,88.42
2018-05-13T04:27:23.136Z,88.23
2018-05-13T04:28:23.148Z,88.52
2018-05-13T04:29:23.161Z,88.23
2018-05-13T04:30:23.173Z,88.23
2018-05-13T04:31:23.187Z,88.61
2018-05-13T04:32:23.198Z,87.95
2018-05-13T04:33:23.211Z,88.42
2018-05-13T04:34:23.223Z,88.42
2018-05-13T04:35:23.236Z,88.33
2018-05-13T04:36:23.249Z,88.71
2018-05-13T04:37:23.264Z,88.47
2018-05-13T04:38:23.278Z,88.28
2018-05-13T04:39:23.285Z,88.28
2018-05-13T04:40:23.299Z,88.28
2018-05-13T04:41:23.313Z,88.28
2018-05-13T04:42:23.322Z,88.76
2018-05-13T04:43:23.334Z,88.47
2018-05-13T04:44:23.349Z,88.95
2018-05-13T04:45:23.364Z,88.38
2018-05-13T04:46:23.373Z,88.57
2018-05-13T04:47:23.384Z,88.52
2018-05-13T04:48:23.397Z,88.52
2018-05-13T04:49:23.410Z,88.71
2018-05-13T04:50:23.422Z,88.80
2018-05-13T04:51:23.436Z,88.61
2018-05-13T04:52:23.448Z,88.61
2018-05-13T04:53:23.459Z,88.80
2018-05-13T04:54:23.475Z,89.00
2018-05-13T04:55:23.484Z,88.52
2018-05-13T04:56:23.498Z,88.13
2018-05-13T04:57:23.510Z,88.33
2018-05-13T04:58:23.520Z,88.52
2018-05-13T04:59:23.535Z,88.52
2018-05-13T05:00:23.548Z,88.42
2018-05-13T05:01:23.558Z,88.80
2018-05-13T05:02:23.571Z,88.33
2018-05-13T05:03:23.584Z,88.33
2018-05-13T05:04:23.596Z,88.33
2018-05-13T05:05:23.608Z,88.23
2018-05-13T05:06:23.624Z,89.09
2018-05-13T05:07:23.633Z,88.52
2018-05-13T05:08:23.648Z,89.00
2018-05-13T05:09:23.656Z,88.61
2018-05-13T05:10:23.672Z,89.09
2018-05-13T05:11:23.684Z,87.85
2018-05-13T05:12:23.696Z,88.13
2018-05-13T05:13:23.713Z,88.23
2018-05-13T05:14:23.725Z,87.99
2018-05-13T05:15:23.735Z,88.37
2018-05-13T05:16:23.751Z,88.56
2018-05-13T05:17:23.761Z,87.80
2018-05-13T05:18:23.772Z,88.56
2018-05-13T05:19:23.787Z,88.85
2018-05-13T05:20:23.797Z,88.75
2018-05-13T05:21:23.810Z,88.75
2018-05-13T05:22:23.825Z,88.56
2018-05-13T05:23:23.838Z,88.66
2018-05-13T05:24:23.850Z,88.18
2018-05-13T05:25:23.861Z,87.99
2018-05-13T05:26:23.877Z,88.23
2018-05-13T05:27:23.887Z,88.13
2018-05-13T05:28:23.902Z,88.42
2018-05-13T05:29:23.911Z,88.23
2018-05-13T05:30:23.926Z,88.42
2018-05-13T05:31:23.938Z,88.56
2018-05-13T05:32:23.953Z,88.46
2018-05-13T05:33:23.963Z,88.85
2018-05-13T05:34:23.979Z,88.46
2018-05-13T05:35:23.989Z,88.85
2018-05-13T05:36:24.003Z,88.37
2018-05-13T05:37:24.015Z,87.23
2018-05-13T05:38:24.026Z,87.90
2018-05-13T05:39:24.041Z,87.23
2018-05-13T05:40:24.053Z,88.28
2018-05-13T05:41:24.068Z,88.28
2018-05-13T05:42:24.081Z,87.90
2018-05-13T05:43:24.093Z,88.09
2018-05-13T05:44:24.105Z,87.71
2018-05-13T05:45:24.118Z,88.09
2018-05-13T05:46:24.132Z,87.99
2018-05-13T05:47:24.147Z,87.52
2018-05-13T05:48:24.257Z,86.85
2018-05-13T05:49:24.171Z,85.99
2018-05-13T05:50:24.185Z,87.23
2018-05-13T05:51:24.201Z,87.32
2018-05-13T05:52:24.209Z,86.09
2018-05-13T05:53:24.224Z,87.99
2018-05-13T05:54:24.236Z,87.90
2018-05-13T05:55:24.248Z,88.18
2018-05-13T05:56:24.261Z,86.47
2018-05-13T05:57:24.277Z,87.04
2018-05-13T05:58:24.287Z,85.71
2018-05-13T05:59:24.298Z,87.61
2018-05-13T06:00:24.313Z,85.99
2018-05-13T06:01:24.325Z,84.05
2018-05-13T06:02:24.339Z,84.85
2018-05-13T06:03:24.351Z,85.61
2018-05-13T06:04:24.364Z,86.18
2018-05-13T06:05:24.379Z,85.52
2018-05-13T06:06:24.390Z,85.61
2018-05-13T06:07:24.403Z,85.24
2018-05-13T06:08:24.416Z,85.52
2018-05-13T06:09:24.430Z,86.18
2018-05-13T06:10:24.441Z,84.19
2018-05-13T06:11:24.454Z,87.13
2018-05-13T06:12:24.470Z,85.04
2018-05-13T06:13:24.481Z,87.90
2018-05-13T06:14:24.494Z,86.85
2018-05-13T06:15:24.510Z,85.00
2018-05-13T06:16:24.521Z,85.86
2018-05-13T06:17:24.535Z,88.33
2018-05-13T06:18:24.545Z,82.81
2018-05-13T06:19:24.559Z,84.33
2018-05-13T06:20:24.574Z,84.81
2018-05-13T06:21:24.583Z,82.05
2018-05-13T06:22:24.595Z,81.58
2018-05-13T06:23:24.609Z,81.38
2018-05-13T06:24:24.622Z,81.38
2018-05-13T06:25:24.643Z,81.86
2018-05-13T06:26:24.647Z,82.43
2018-05-13T06:27:24.659Z,84.33
2018-05-13T06:28:24.674Z,82.34
2018-05-13T06:29:24.684Z,84.09
2018-05-13T06:30:24.698Z,82.76
2018-05-13T06:31:24.711Z,82.05
2018-05-13T06:32:24.724Z,81.58
2018-05-13T06:33:24.736Z,81.67
2018-05-13T06:34:24.758Z,84.52
2018-05-13T06:35:24.761Z,81.81
2018-05-13T06:36:24.775Z,81.77
2018-05-13T06:37:24.785Z,82.05
2018-05-13T06:38:24.799Z,81.20
2018-05-13T06:39:24.813Z,80.53
2018-05-13T06:40:24.826Z,80.53
2018-05-13T06:41:24.837Z,81.29
2018-05-13T06:42:24.850Z,81.67
2018-05-13T06:43:24.867Z,81.29
2018-05-13T06:44:24.874Z,80.82
2018-05-13T06:45:24.887Z,82.19
2018-05-13T06:46:24.903Z,82.43
2018-05-13T06:47:24.918Z,82.62
2018-05-13T06:48:24.926Z,80.91
2018-05-13T06:49:24.940Z,81.62
2018-05-13T06:50:24.953Z,81.33
2018-05-13T06:51:25.051Z,80.00
2018-05-13T06:52:24.979Z,80.66
2018-05-13T06:53:24.992Z,82.95
2018-05-13T06:54:25.003Z,80.57
2018-05-13T06:55:25.016Z,81.43
2018-05-13T06:56:25.028Z,81.24
2018-05-13T06:57:25.145Z,82.19
2018-05-13T06:58:25.056Z,82.19
2018-05-13T06:59:25.067Z,82.00
2018-05-13T07:00:25.082Z,82.00
2018-05-13T07:01:25.094Z,83.42
2018-05-13T07:02:25.105Z,85.28
2018-05-13T07:03:25.119Z,85.28
2018-05-13T07:04:25.132Z,85.94
2018-05-13T07:05:25.142Z,83.09
2018-05-13T07:06:25.155Z,80.47
2018-05-13T07:07:25.169Z,82.09
2018-05-13T07:08:25.182Z,82.48
2018-05-13T07:09:25.196Z,83.14
2018-05-13T07:10:25.352Z,82.70
2018-05-13T07:11:25.219Z,81.66
2018-05-13T07:12:25.237Z,81.43
2018-05-13T07:13:25.253Z,82.09
2018-05-13T07:14:25.262Z,80.29
2018-05-13T07:15:25.276Z,80.38
2018-05-13T07:16:25.351Z,80.19
2018-05-13T07:17:25.300Z,80.95
2018-05-13T07:18:25.312Z,81.33
2018-05-13T07:19:25.373Z,79.33
2018-05-13T07:20:25.342Z,80.66
2018-05-13T07:21:25.352Z,80.10
2018-05-13T07:22:25.365Z,80.19
2018-05-13T07:23:25.393Z,80.13
2018-05-13T07:24:25.390Z,83.23
2018-05-13T07:25:25.402Z,79.81
2018-05-13T07:26:25.418Z,79.91
2018-05-13T07:27:25.430Z,78.86
2018-05-13T07:28:25.446Z,78.38
2018-05-13T07:29:25.454Z,78.25
2018-05-13T07:30:25.468Z,78.91
2018-05-13T07:31:25.479Z,78.44
2018-05-13T07:32:25.495Z,78.16
2018-05-13T07:33:25.505Z,77.77
2018-05-13T07:34:25.520Z,78.53
2018-05-13T07:35:25.531Z,78.72
2018-05-13T07:36:25.546Z,79.96
2018-05-13T07:37:25.557Z,79.39
2018-05-13T07:38:25.573Z,78.72
2018-05-13T07:39:25.648Z,79.11
2018-05-13T07:40:25.596Z,77.77
2018-05-13T07:41:25.607Z,77.68
2018-05-13T07:42:25.623Z,78.91
2018-05-13T07:43:25.715Z,79.11
2018-05-13T07:44:25.653Z,78.44
2018-05-13T07:45:25.659Z,78.44
2018-05-13T07:46:25.670Z,78.82
2018-05-13T07:47:25.684Z,78.96
2018-05-13T07:48:25.697Z,80.57
2018-05-13T07:49:25.710Z,82.19
2018-05-13T07:50:25.723Z,83.52
2018-05-13T07:51:25.736Z,84.19
2018-05-13T07:52:25.749Z,83.09
2018-05-13T07:53:25.761Z,82.70
2018-05-13T07:54:25.772Z,84.04
2018-05-13T07:55:25.790Z,82.99
2018-05-13T07:56:25.802Z,82.51
2018-05-13T07:57:25.810Z,84.42
2018-05-13T07:58:25.824Z,81.66
2018-05-13T07:59:25.837Z,85.47
2018-05-13T08:00:25.852Z,87.27
2018-05-13T08:01:25.863Z,85.66
2018-05-13T08:02:25.877Z,84.33
2018-05-13T08:03:25.890Z,86.51
2018-05-13T08:04:25.908Z,83.18
2018-05-13T08:05:25.912Z,83.85
2018-05-13T08:06:25.928Z,85.14
2018-05-13T08:07:25.940Z,83.14
2018-05-13T08:08:25.955Z,84.38
2018-05-13T08:09:25.969Z,81.24
2018-05-13T08:10:25.979Z,82.67
2018-05-13T08:11:25.992Z,83.33
2018-05-13T08:12:26.008Z,82.48
2018-05-13T08:13:26.018Z,83.14
2018-05-13T08:14:26.031Z,83.62
2018-05-13T08:15:26.045Z,82.00
2018-05-13T08:16:26.057Z,82.86
2018-05-13T08:17:26.070Z,82.48
2018-05-13T08:18:26.083Z,81.71
2018-05-13T08:19:26.098Z,81.90
2018-05-13T08:20:26.288Z,82.86
2018-05-13T08:21:26.123Z,82.48
2018-05-13T08:22:26.136Z,82.57
2018-05-13T08:23:26.147Z,81.56
2018-05-13T08:24:26.161Z,82.61
2018-05-13T08:25:26.172Z,82.90
2018-05-13T08:26:26.186Z,85.47
2018-05-13T08:27:26.202Z,78.56
2018-05-13T08:28:26.213Z,78.85
2018-05-13T08:29:26.226Z,80.65
2018-05-13T08:30:26.239Z,86.32
2018-05-13T08:31:26.251Z,86.94
2018-05-13T08:32:26.266Z,82.84
2018-05-13T08:33:26.279Z,84.31
2018-05-13T08:34:26.292Z,89.75
2018-05-13T08:35:26.303Z,83.93
2018-05-13T08:36:26.322Z,87.27
2018-05-13T08:37:26.332Z,82.27
2018-05-13T08:38:26.346Z,84.36
2018-05-13T08:39:26.357Z,90.79
2018-05-13T08:40:26.372Z,83.17
2018-05-13T08:41:26.385Z,85.08
2018-05-13T08:42:26.398Z,84.69
2018-05-13T08:43:26.414Z,83.13
2018-05-13T08:44:26.425Z,84.56
2018-05-13T08:45:26.437Z,85.99
2018-05-13T08:46:26.452Z,86.55
2018-05-13T08:47:26.466Z,85.03
2018-05-13T08:48:26.495Z,84.46
2018-05-13T08:49:26.491Z,83.89
2018-05-13T08:50:26.504Z,83.70
2018-05-13T08:51:26.518Z,84.36
2018-05-13T08:52:26.531Z,82.84
2018-05-13T08:53:26.544Z,79.46
2018-05-13T08:54:26.558Z,83.93
2018-05-13T08:55:26.571Z,84.64
2018-05-13T08:56:26.583Z,86.83
2018-05-13T08:57:26.597Z,86.16
2018-05-13T08:58:26.610Z,87.02
2018-05-13T08:59:26.624Z,84.83
2018-05-13T09:00:26.639Z,89.22
2018-05-13T09:01:26.650Z,92.93
2018-05-13T09:02:26.664Z,86.93
2018-05-13T09:03:26.680Z,86.45
2018-05-13T09:04:26.692Z,90.17
2018-05-13T09:05:26.706Z,86.60
2018-05-13T09:06:26.720Z,78.50
2018-05-13T09:07:26.736Z,84.22
2018-05-13T09:08:26.851Z,82.45
2018-05-13T09:09:26.760Z,87.50
2018-05-13T09:10:26.777Z,86.88
2018-05-13T09:11:26.788Z,88.89
2018-05-13T09:12:26.803Z,87.84
2018-05-13T09:13:26.815Z,81.93
2018-05-13T09:14:26.853Z,90.64
2018-05-13T09:15:26.845Z,82.92
2018-05-13T09:16:26.859Z,89.03
2018-05-13T09:17:26.872Z,79.78
2018-05-13T09:18:26.886Z,89.22
2018-05-13T09:19:26.900Z,89.65
2018-05-13T09:20:26.915Z,84.69
2018-05-13T09:21:26.930Z,87.55
2018-05-13T09:22:26.940Z,86.79
2018-05-13T09:23:26.959Z,84.03
2018-05-13T09:24:26.969Z,85.55
2018-05-13T09:25:26.982Z,88.84
2018-05-13T09:26:27.018Z,90.45
2018-05-13T09:27:27.009Z,86.74
2018-05-13T09:28:27.024Z,88.59
2018-05-13T09:29:27.040Z,89.74
2018-05-13T09:30:27.051Z,86.11
2018-05-13T09:31:27.068Z,93.27
2018-05-13T09:32:27.078Z,90.36
2018-05-13T09:33:27.094Z,88.64
2018-05-13T09:34:27.108Z,89.97
2018-05-13T09:35:27.122Z,87.93
2018-05-13T09:36:27.141Z,90.26
2018-05-13T09:37:27.148Z,88.26
2018-05-13T09:38:27.162Z,89.22
2018-05-13T09:39:27.242Z,87.88
2018-05-13T09:40:27.193Z,88.26
2018-05-13T09:41:27.209Z,87.31
2018-05-13T09:42:27.221Z,89.40
2018-05-13T09:43:27.236Z,88.45
2018-05-13T09:44:27.250Z,89.36
2018-05-13T09:45:27.265Z,87.84
2018-05-13T09:46:27.281Z,88.41
2018-05-13T09:47:27.292Z,89.31
2018-05-13T09:48:27.307Z,88.74
2018-05-13T09:49:27.326Z,88.17
2018-05-13T09:50:27.339Z,88.70
2018-05-13T09:51:27.350Z,88.89
2018-05-13T09:52:27.366Z,88.79
2018-05-13T09:53:27.383Z,87.17
2018-05-13T09:54:27.393Z,89.22
2018-05-13T09:55:27.407Z,89.79
2018-05-13T09:56:27.427Z,88.74
2018-05-13T09:57:27.437Z,89.22
2018-05-13T09:58:27.466Z,89.89
2018-05-13T09:59:27.465Z,88.64
2018-05-13T10:00:27.481Z,89.40
2018-05-13T10:01:27.493Z,91.64
2018-05-13T10:02:27.509Z,90.74
2018-05-13T10:03:27.522Z,89.89
2018-05-13T10:04:27.538Z,89.31
2018-05-13T10:05:27.550Z,90.74
2018-05-13T10:06:27.566Z,90.84
2018-05-13T10:07:27.584Z,90.17
2018-05-13T10:08:28.601Z,89.22
2018-05-13T10:09:27.610Z,87.69
2018-05-13T10:10:27.623Z,89.98
2018-05-13T10:11:27.647Z,89.50
2018-05-13T10:12:27.656Z,89.22
2018-05-13T10:13:27.667Z,89.98
2018-05-13T10:14:27.680Z,89.98
2018-05-13T10:15:27.695Z,88.17
2018-05-13T10:16:27.711Z,89.89
2018-05-13T10:17:27.723Z,89.69
2018-05-13T10:18:27.737Z,89.74
2018-05-13T10:19:27.844Z,87.54
2018-05-13T10:20:27.767Z,89.93
2018-05-13T10:21:27.782Z,92.74
2018-05-13T10:22:27.797Z,91.45
2018-05-13T10:23:27.810Z,91.55
2018-05-13T10:24:27.834Z,89.35
2018-05-13T10:25:27.839Z,89.40
2018-05-13T10:26:27.854Z,87.74
2018-05-13T10:27:27.871Z,89.93
2018-05-13T10:28:27.891Z,89.22
2018-05-13T10:29:27.898Z,88.03
2018-05-13T10:30:27.914Z,89.55
2018-05-13T10:31:27.931Z,89.36
2018-05-13T10:32:27.947Z,89.36
2018-05-13T10:33:27.960Z,89.94
2018-05-13T10:34:27.973Z,90.26
2018-05-13T10:35:27.992Z,89.22
2018-05-13T10:36:28.083Z,89.98
2018-05-13T10:37:28.016Z,88.98
2018-05-13T10:38:28.032Z,90.31
2018-05-13T10:39:28.045Z,91.64
2018-05-13T10:40:28.068Z,86.69
2018-05-13T10:41:28.075Z,92.50
2018-05-13T10:42:28.099Z,88.21
2018-05-13T10:43:28.108Z,86.69
2018-05-13T10:44:28.121Z,90.22
2018-05-13T10:45:28.181Z,90.59
2018-05-13T10:46:28.147Z,89.54
2018-05-13T10:47:28.167Z,89.89
2018-05-13T10:48:28.178Z,89.31
2018-05-13T10:49:28.194Z,89.22
2018-05-13T10:50:28.208Z,89.75
2018-05-13T10:51:28.222Z,88.79
2018-05-13T10:52:28.235Z,88.36
2018-05-13T10:53:28.250Z,89.45
2018-05-13T10:54:28.266Z,89.74
2018-05-13T10:55:28.283Z,89.93
2018-05-13T10:56:28.296Z,89.31
2018-05-13T10:57:28.309Z,88.40
2018-05-13T10:58:28.322Z,90.03
2018-05-13T10:59:28.337Z,90.03
2018-05-13T11:00:28.353Z,89.31
2018-05-13T11:01:28.376Z,89.31
2018-05-13T11:02:28.382Z,88.45
2018-05-13T11:03:28.398Z,88.88
2018-05-13T11:04:28.420Z,89.22
2018-05-13T11:05:28.430Z,89.40
2018-05-13T11:06:28.447Z,89.84
2018-05-13T11:07:28.462Z,88.41
2018-05-13T11:08:28.471Z,87.65
2018-05-13T11:09:28.486Z,87.88
2018-05-13T11:10:28.501Z,92.27
2018-05-13T11:11:28.518Z,89.60
2018-05-13T11:12:28.533Z,89.98
2018-05-13T11:13:28.543Z,90.55
2018-05-13T11:14:28.563Z,88.55
2018-05-13T11:15:28.573Z,89.50
2018-05-13T11:16:28.590Z,90.26
2018-05-13T11:17:28.603Z,90.17
2018-05-13T11:18:28.618Z,88.74
2018-05-13T11:19:28.635Z,90.26
2018-05-13T11:20:28.649Z,89.26
2018-05-13T11:21:28.717Z,89.83
2018-05-13T11:22:28.678Z,89.78
2018-05-13T11:23:28.691Z,89.31
2018-05-13T11:24:28.707Z,89.45
2018-05-13T11:25:28.721Z,89.07
2018-05-13T11:26:28.735Z,89.64
2018-05-13T11:27:28.751Z,88.07
2018-05-13T11:28:28.766Z,89.31
2018-05-13T11:29:28.783Z,90.17
2018-05-13T11:30:28.797Z,89.73
2018-05-13T11:31:28.812Z,88.45
2018-05-13T11:32:28.828Z,89.45
2018-05-13T11:33:28.840Z,89.31
2018-05-13T11:34:28.856Z,86.10
2018-05-13T11:35:28.871Z,91.97
2018-05-13T11:36:28.886Z,88.06
2018-05-13T11:37:28.901Z,81.89
2018-05-13T11:38:28.917Z,87.24
2018-05-13T11:39:28.946Z,75.59
2018-05-13T11:40:28.949Z,64.47
2018-05-13T11:41:28.962Z,60.27
2018-05-13T11:42:28.979Z,62.27
2018-05-13T11:43:28.994Z,64.37
2018-05-13T11:44:29.014Z,63.80
2018-05-13T11:45:29.027Z,61.22
2018-05-13T11:46:29.041Z,60.33
2018-05-13T11:47:29.058Z,61.47
2018-05-13T11:48:29.076Z,60.71
2018-05-13T11:49:29.086Z,61.19
2018-05-13T11:50:29.102Z,61.57
2018-05-13T11:51:29.118Z,60.61
2018-05-13T11:52:29.136Z,57.18
2018-05-13T11:53:29.148Z,59.76
2018-05-13T11:54:29.166Z,63.48
2018-05-13T11:55:29.180Z,81.38
2018-05-13T11:56:29.223Z,83.77
2018-05-13T11:57:29.211Z,83.44
2018-05-13T11:58:29.226Z,85.25
2018-05-13T11:59:29.242Z,85.06
2018-05-13T12:00:29.257Z,86.83
2018-05-13T12:01:29.274Z,87.74
2018-05-13T12:02:29.314Z,89.17
2018-05-13T12:03:29.303Z,86.03
2018-05-13T12:04:29.320Z,81.17
2018-05-13T12:05:29.334Z,83.83
2018-05-13T12:06:29.347Z,86.21
2018-05-13T12:07:29.364Z,87.59
2018-05-13T12:08:29.377Z,87.07
2018-05-13T12:09:29.395Z,86.40
2018-05-13T12:10:29.407Z,86.21
2018-05-13T12:11:29.426Z,86.30
2018-05-13T12:12:29.456Z,74.77
2018-05-13T12:13:29.456Z,67.74
2018-05-13T12:14:29.469Z,65.87
2018-05-13T12:15:29.486Z,66.00
2018-05-13T12:16:29.504Z,64.47
2018-05-13T12:17:29.516Z,60.07
2018-05-13T12:18:29.534Z,59.59
2018-05-13T12:19:29.547Z,56.89
2018-05-13T12:20:29.560Z,62.05
2018-05-13T12:21:29.575Z,66.15
2018-05-13T12:22:29.592Z,62.91
2018-05-13T12:23:29.607Z,60.04
2018-05-13T12:24:29.623Z,58.42
2018-05-13T12:25:29.639Z,59.19
2018-05-13T12:26:29.653Z,62.43
2018-05-13T12:27:29.668Z,60.81
2018-05-13T12:28:29.683Z,60.39
2018-05-13T12:29:29.698Z,68.79
2018-05-13T12:30:29.714Z,66.85
2018-05-13T12:31:29.727Z,75.53
2018-05-13T12:32:29.743Z,77.20
2018-05-13T12:33:29.800Z,81.30
2018-05-13T12:34:29.774Z,80.83
2018-05-13T12:35:29.790Z,83.54
2018-05-13T12:36:29.806Z,82.30
2018-05-13T12:37:29.819Z,72.76
2018-05-13T12:38:29.833Z,67.80
2018-05-13T12:39:29.857Z,64.12
2018-05-13T12:40:29.866Z,65.26
2018-05-13T12:41:29.881Z,61.25
2018-05-13T12:42:29.894Z,59.53
2018-05-13T12:43:29.917Z,58.20
2018-05-13T12:44:29.927Z,59.16
2018-05-13T12:45:29.939Z,59.89
2018-05-13T12:46:29.955Z,62.59
2018-05-13T12:47:29.973Z,64.88
2018-05-13T12:48:29.987Z,60.68
2018-05-13T12:49:30.000Z,63.45
2018-05-13T12:50:30.016Z,63.16
2018-05-13T12:51:30.030Z,73.18
2018-05-13T12:52:30.048Z,75.09